Tesuque Pueblo, New Mexico
Current Conditions -  °F | °C
As of 3:53 AM on Monday 22 Dec 2014 (Local Time) from KSAF Reporting Station
Clear Clear  
Wind Chill: 29°   Ceiling: Unl
Heat Index: 40°   Visibility: 10mi
Dew Point: 29°   Wind: 24mph
Humidity: 65%   Direction: 270°W
Pressure: 29.81"   Gusts: 30mph
Location:  35.7017°N, 105.921°W
Report Text: KSAF 221053Z AUTO 27021G26KT 10SM CLR 04/M02 A2981 RMK AO2 PK WND 27030/1018 SLP059 T00441017
Loading
Personal Weather Stations






























Interactive Weather Map New forecast layout! Learn more

10-Day Weather Forecast

Advertisements
Track Severe Weather on mobile